In Rescue
 
Open Full Screen Window  High Contrast Mode
Wind Gusting 00 knots
11
November 19, 2019 12:52 PM CST
Weather Information
Wind Direction
  310 °
Wind Speed
  11 kt (13 mph)
Wind Gust
  00 kt (0 mph)
Altimeter
29.80 in
Visibility
10 SM
Temperature
05° C
41° F
Dewpoint
01° C
34° F
Humidity
76%
1hr Rain Fall
00.00 in.
24hr Rain Fall
00.00 in.
Sky Condition
Broken @ 2,300 ft
Scattered @ 1,800 ft
MVFR

METAR KMOX 191852Z AUTO 31011KT 10SM SCT018 BKN023 05/01 A2980 RMK AO2

FAA Disclaimer: The data displayed is for advisory purposes only and is not to be used for flight planning or operations.